Time;durP1;ratioP1;P1;durP2;ratioP2;P2;SDS_P1;SDS_P2;PMS_P1;PMS_P2;Temp;Humidity;BMP_temperature;BMP_pressure;BME280_temperature;BME280_humidity;BME280_pressure;Samples;Min_cycle;Max_cycle;Signal;HPM_P1;HPM_P2
2022/04/23 00:01:42;;;;;;;14.95;9.30;;;26.50;99.90;;;;;;5048666;28;20033;-68
2022/04/23 00:04:11;;;;;;;21.33;8.45;;;26.60;99.90;;;;;;5052906;28;20120;-69
2022/04/23 00:06:37;;;;;;;19.08;9.52;;;26.60;99.90;;;;;;5056525;28;20104;-67
2022/04/23 00:09:05;;;;;;;17.85;9.07;;;26.70;99.90;;;;;;5055955;28;20025;-66
2022/04/23 00:11:32;;;;;;;17.15;8.13;;;26.70;99.90;;;;;;5054414;28;20033;-67
2022/04/23 00:14:00;;;;;;;17.30;8.32;;;26.80;99.90;;;;;;5054399;28;20472;-68
2022/04/23 00:16:27;;;;;;;13.82;8.45;;;26.70;99.90;;;;;;5040575;28;20030;-67
2022/04/23 00:18:54;;;;;;;16.83;9.18;;;26.70;99.90;;;;;;5047454;28;20036;-67
2022/04/23 00:21:21;;;;;;;15.20;7.75;;;26.70;99.90;;;;;;5040174;28;20116;-68
2022/04/23 00:23:48;;;;;;;14.07;7.47;;;26.70;99.90;;;;;;5036086;28;20025;-66
2022/04/23 00:26:16;;;;;;;12.57;6.63;;;26.70;99.90;;;;;;5055275;28;20124;-67
2022/04/23 00:28:43;;;;;;;12.02;7.22;;;26.70;99.90;;;;;;5055775;28;20021;-67
2022/04/23 00:31:10;;;;;;;29.63;7.68;;;26.70;99.90;;;;;;5040401;28;20025;-68
2022/04/23 00:33:37;;;;;;;14.50;7.65;;;26.70;99.90;;;;;;5035761;28;20079;-67
2022/04/23 00:36:06;;;;;;;15.20;7.55;;;26.70;99.90;;;;;;5049511;28;20051;-68
2022/04/23 00:38:33;;;;;;;15.07;7.97;;;26.70;99.90;;;;;;5055732;28;20031;-68
2022/04/23 00:41:00;;;;;;;9.80;6.18;;;26.80;99.90;;;;;;5054942;28;20441;-68
2022/04/23 00:43:30;;;;;;;23.80;9.50;;;26.90;99.90;;;;;;5055796;28;20040;-68
2022/04/23 00:45:58;;;;;;;27.65;14.93;;;26.90;99.90;;;;;;5046308;28;20038;-68
2022/04/23 00:48:26;;;;;;;19.55;11.10;;;26.90;99.90;;;;;;5039175;28;20032;-68
2022/04/23 00:50:56;;;;;;;15.27;8.68;;;27.00;99.90;;;;;;5050736;28;20036;-68
2022/04/23 00:53:24;;;;;;;11.98;7.38;;;27.10;99.90;;;;;;5054574;28;20094;-68
2022/04/23 00:55:54;;;;;;;17.15;8.20;;;27.20;99.90;;;;;;5046843;28;20470;-68
2022/04/23 00:58:23;;;;;;;27.48;15.57;;;27.10;99.90;;;;;;5050149;28;20394;-68
2022/04/23 01:00:49;;;;;;;28.23;15.18;;;27.10;99.90;;;;;;5036843;28;20159;-69
2022/04/23 01:03:16;;;;;;;33.65;18.58;;;27.10;99.90;;;;;;5037959;28;20036;-68
2022/04/23 01:05:45;;;;;;;21.10;9.13;;;27.10;99.90;;;;;;5054825;28;20478;-68
2022/04/23 01:08:15;;;;;;;13.43;6.80;;;27.20;99.90;;;;;;5053998;28;20497;-68
2022/04/23 01:10:45;;;;;;;17.58;7.03;;;27.30;99.90;;;;;;5037584;28;20028;-68
2022/04/23 01:13:14;;;;;;;13.10;7.18;;;27.30;99.90;;;;;;5034950;28;20025;-67
2022/04/23 01:15:59;;;;;;;11.93;6.90;;;27.40;99.90;;;;;;5034804;28;20490;-68
2022/04/23 01:18:27;;;;;;;18.70;8.77;;;27.40;99.90;;;;;;5036202;28;20080;-66
2022/04/23 01:20:59;;;;;;;14.77;8.68;;;27.40;99.90;;;;;;5054453;28;20036;-70
2022/04/23 01:23:26;;;;;;;19.13;9.65;;;27.40;99.90;;;;;;5052248;28;20108;-66
2022/04/23 01:25:54;;;;;;;14.55;8.55;;;27.40;99.90;;;;;;5050945;28;20359;-68
2022/04/23 01:28:22;;;;;;;15.95;7.97;;;27.50;99.90;;;;;;5041874;28;20017;-68
2022/04/23 01:30:54;;;;;;;16.73;7.50;;;27.60;99.90;;;;;;5053865;28;20052;-68
2022/04/23 01:33:21;;;;;;;;;;;27.60;99.90;;;;;;5054951;28;20031;-68
2022/04/23 01:35:49;;;;;;;15.63;6.80;;;27.70;99.90;;;;;;5053885;28;19908;-67
2022/04/23 01:38:16;;;;;;;15.25;6.68;;;27.70;99.90;;;;;;5047719;28;20091;-67
2022/04/23 01:40:43;;;;;;;15.05;6.55;;;27.80;99.90;;;;;;5048475;28;20482;-67
2022/04/23 01:43:11;;;;;;;14.52;6.60;;;27.80;99.90;;;;;;5054139;28;20489;-68
2022/04/23 01:45:39;;;;;;;11.13;6.80;;;27.90;99.90;;;;;;5052838;28;20045;-67
2022/04/23 01:48:07;;;;;;;11.45;6.47;;;27.90;99.90;;;;;;5051399;28;20037;-70
2022/04/23 01:50:34;;;;;;;16.77;7.30;;;28.00;99.90;;;;;;5053275;28;20025;-68
2022/04/23 01:53:02;;;;;;;12.35;7.20;;;28.10;99.90;;;;;;5052375;28;20025;-67
2022/04/23 01:55:30;;;;;;;13.32;7.03;;;28.10;99.90;;;;;;5033888;28;20030;-68
2022/04/23 01:57:58;;;;;;;10.60;6.65;;;28.20;99.90;;;;;;5035282;28;20029;-69
2022/04/23 02:00:26;;;;;;;21.05;7.60;;;28.20;99.90;;;;;;5034211;28;20033;-66
2022/04/23 02:02:56;;;;;;;18.77;7.28;;;28.30;99.90;;;;;;5042405;28;20041;-66
2022/04/23 02:05:24;;;;;;;10.43;6.82;;;28.40;99.90;;;;;;5034078;28;20029;-67
2022/04/23 02:07:51;;;;;;;22.52;9.43;;;28.40;99.90;;;;;;5044188;28;20028;-65
2022/04/23 02:10:19;;;;;;;19.38;9.82;;;28.50;99.90;;;;;;5052146;28;20048;-66
2022/04/23 02:12:47;;;;;;;22.83;12.38;;;28.60;99.90;;;;;;5052591;28;20032;-66
2022/04/23 02:15:17;;;;;;;18.35;11.57;;;28.60;99.90;;;;;;5053667;28;20033;-67
2022/04/23 02:17:50;;;;;;;22.17;9.80;;;28.70;99.90;;;;;;5053023;28;20041;-67
2022/04/23 02:20:18;;;;;;;14.20;9.00;;;28.70;99.90;;;;;;5043554;28;20477;-66
2022/04/23 02:22:47;;;;;;;19.92;10.65;;;28.80;99.90;;;;;;5052603;28;20029;-64
2022/04/23 02:25:16;;;;;;;20.52;12.52;;;28.80;99.90;;;;;;5050111;28;20029;-68
2022/04/23 02:27:49;;;;;;;22.63;10.95;;;28.80;99.90;;;;;;5051458;28;20421;-68
2022/04/23 02:30:19;;;;;;;17.67;10.68;;;28.90;99.90;;;;;;5043152;28;20039;-67
2022/04/23 02:32:48;;;;;;;24.67;12.82;;;29.00;99.90;;;;;;5045439;28;20477;-66
2022/04/23 02:35:17;;;;;;;18.92;11.57;;;29.00;99.90;;;;;;5034180;28;20025;-73
2022/04/23 02:37:53;;;;;;;25.90;13.27;;;29.00;99.90;;;;;;5034649;28;20033;-75
2022/04/23 02:40:25;;;;;;;33.30;14.40;;;29.00;99.90;;;;;;5034409;28;20021;-66
2022/04/23 02:42:54;;;;;;;25.20;13.73;;;29.00;99.90;;;;;;5041639;28;20033;-66
2022/04/23 02:45:25;;;;;;;27.55;13.40;;;29.10;99.90;;;;;;5043741;28;20037;-64
2022/04/23 02:47:59;;;;;;;21.48;12.02;;;29.10;99.90;;;;;;5044101;28;20041;-63
2022/04/23 02:50:37;;;;;;;20.05;12.02;;;29.20;99.90;;;;;;5042260;28;20036;-68
2022/04/23 02:53:07;;;;;;;18.55;11.32;;;29.20;99.90;;;;;;5043009;28;20025;-66
2022/04/23 02:55:36;;;;;;;18.08;13.10;;;29.20;99.90;;;;;;5042664;28;20037;-65
2022/04/23 02:58:07;;;;;;;21.42;13.10;;;29.20;99.90;;;;;;5042168;28;20496;-64
2022/04/23 03:00:40;;;;;;;22.70;13.50;;;29.20;99.90;;;;;;5040351;28;20032;-62
2022/04/23 03:03:12;;;;;;;17.85;12.43;;;29.10;99.90;;;;;;5042894;28;20509;-64
2022/04/23 03:05:47;;;;;;;23.60;12.70;;;29.10;99.90;;;;;;5047222;28;20029;-65
2022/04/23 03:08:15;;;;;;;23.38;13.30;;;29.10;99.90;;;;;;5046914;28;20025;-65
2022/04/23 03:10:44;;;;;;;21.00;12.55;;;29.10;99.90;;;;;;5035595;28;20030;-65
2022/04/23 03:13:12;;;;;;;25.05;13.38;;;29.10;99.90;;;;;;5046517;28;20033;-64
2022/04/23 03:15:41;;;;;;;25.98;15.20;;;29.20;99.90;;;;;;5051287;28;20045;-66
2022/04/23 03:18:11;;;;;;;27.13;15.10;;;29.20;99.90;;;;;;5046525;28;20343;-66
2022/04/23 03:20:41;;;;;;;22.52;15.88;;;29.20;99.90;;;;;;5047959;28;20060;-67
2022/04/23 03:23:12;;;;;;;24.10;16.13;;;29.20;99.90;;;;;;5033693;28;20500;-65
2022/04/23 03:25:43;;;;;;;23.77;13.45;;;29.30;99.90;;;;;;5051222;28;20029;-66
2022/04/23 03:28:13;;;;;;;26.00;15.90;;;29.40;99.90;;;;;;5051792;28;20071;-66
2022/04/23 03:30:48;;;;;;;37.05;16.85;;;29.40;99.90;;;;;;5052408;28;20037;-68
2022/04/23 03:33:16;;;;;;;23.55;15.15;;;29.40;99.90;;;;;;5051019;28;20032;-68
2022/04/23 03:35:44;;;;;;;26.15;14.73;;;29.40;99.90;;;;;;5044738;28;20133;-66
2022/04/23 03:38:13;;;;;;;37.67;17.40;;;29.40;99.90;;;;;;5049601;28;20109;-67
2022/04/23 03:40:41;;;;;;;24.10;16.20;;;29.40;99.90;;;;;;5045206;28;20089;-69
2022/04/23 03:43:09;;;;;;;27.30;17.33;;;29.50;99.90;;;;;;5041509;28;20052;-69
2022/04/23 03:45:39;;;;;;;22.58;16.02;;;29.40;99.90;;;;;;5044627;28;20052;-69
2022/04/23 03:48:08;;;;;;;29.13;16.77;;;29.50;99.90;;;;;;5054459;28;20031;-68
2022/04/23 03:50:41;;;;;;;31.15;18.23;;;29.50;99.90;;;;;;5046353;28;20188;-68
2022/04/23 03:53:12;;;;;;;22.10;15.55;;;29.50;99.90;;;;;;5041283;28;20163;-70
2022/04/23 03:55:46;;;;;;;30.00;17.33;;;29.50;99.90;;;;;;5049201;28;20147;-68
2022/04/23 03:58:16;;;;;;;26.15;17.08;;;29.50;99.90;;;;;;5036487;28;20064;-69
2022/04/23 04:00:45;;;;;;;25.90;18.00;;;29.60;99.90;;;;;;5041708;28;20385;-69
2022/04/23 04:03:15;;;;;;;26.38;17.30;;;29.60;99.90;;;;;;5054234;28;20171;-69
2022/04/23 04:05:48;;;;;;;38.13;20.05;;;29.60;99.90;;;;;;5053708;28;20079;-68
2022/04/23 04:08:26;;;;;;;33.50;19.58;;;29.70;99.90;;;;;;5036167;28;20136;-69
2022/04/23 04:11:04;;;;;;;37.75;19.83;;;29.70;99.90;;;;;;5038362;28;20025;-68
2022/04/23 04:13:35;;;;;;;29.80;18.70;;;29.60;99.90;;;;;;5048216;28;20409;-73
2022/04/23 04:16:09;;;;;;;24.77;17.90;;;29.70;99.90;;;;;;5056183;28;20029;-72
2022/04/23 04:18:38;;;;;;;30.10;19.42;;;29.70;99.90;;;;;;5042832;28;20119;-74
2022/04/23 04:21:07;;;;;;;34.90;19.33;;;29.70;99.90;;;;;;5047038;28;20482;-69
2022/04/23 04:23:39;;;;;;;29.83;18.92;;;29.90;99.90;;;;;;5045063;28;20045;-70
2022/04/23 04:26:11;;;;;;;29.73;18.75;;;29.90;99.90;;;;;;5041022;28;20305;-68
2022/04/23 04:28:41;;;;;;;29.15;19.00;;;30.10;99.90;;;;;;5041028;28;20025;-69
2022/04/23 04:33:57;;;;;;;;;;;30.20;99.90;;;;;;5050012;28;20027;-69
2022/04/23 04:36:28;;;;;;;29.02;18.55;;;30.10;99.90;;;;;;5052067;28;19909;-69
2022/04/23 04:38:59;;;;;;;25.50;18.02;;;30.20;99.90;;;;;;5039384;28;20470;-69
2022/04/23 04:41:35;;;;;;;28.30;17.58;;;30.20;99.90;;;;;;5046461;28;20025;-72
2022/04/23 04:44:05;;;;;;;29.90;19.77;;;30.30;99.90;;;;;;5044839;28;20051;-70
2022/04/23 04:46:35;;;;;;;32.90;20.63;;;30.30;99.90;;;;;;5049083;28;20068;-70
2022/04/23 04:49:11;;;;;;;31.50;21.35;;;30.20;99.90;;;;;;5044524;28;20040;-69
2022/04/23 04:51:39;;;;;;;32.10;21.30;;;30.20;99.90;;;;;;5045342;28;20017;-70
2022/04/23 04:54:18;;;;;;;32.88;21.70;;;30.20;99.90;;;;;;5044494;28;20028;-70
2022/04/23 04:56:50;;;;;;;27.48;20.17;;;30.20;99.90;;;;;;5043137;28;20091;-69
2022/04/23 04:59:22;;;;;;;30.02;19.33;;;30.30;99.90;;;;;;5043320;28;20039;-69
2022/04/23 05:01:52;;;;;;;32.85;20.48;;;30.30;99.90;;;;;;5043164;28;20052;-68
2022/04/23 05:04:20;;;;;;;35.72;21.70;;;30.40;99.90;;;;;;5055247;28;20025;-65
2022/04/23 05:06:48;;;;;;;42.03;26.00;;;30.50;99.90;;;;;;5051726;28;20032;-65
2022/04/23 05:09:16;;;;;;;31.83;20.55;;;30.70;99.90;;;;;;5048529;28;20037;-66
2022/04/23 05:11:44;;;;;;;31.08;20.40;;;30.90;99.90;;;;;;5053976;28;20461;-66
2022/04/23 05:14:13;;;;;;;28.73;19.63;;;31.10;99.90;;;;;;5049932;28;20056;-66
2022/04/23 05:16:40;;;;;;;26.50;19.30;;;31.20;99.90;;;;;;5044675;28;20116;-66
2022/04/23 05:19:08;;;;;;;29.30;19.85;;;31.20;99.90;;;;;;5052721;28;20032;-66
2022/04/23 05:21:36;;;;;;;26.98;18.27;;;31.10;99.90;;;;;;5046934;28;20029;-63
2022/04/23 05:24:06;;;;;;;34.13;19.60;;;31.10;99.90;;;;;;5046147;28;20505;-66
2022/04/23 05:26:35;;;;;;;28.77;19.33;;;31.20;99.90;;;;;;5044041;28;20040;-65
2022/04/23 05:29:03;;;;;;;28.27;19.23;;;31.30;99.90;;;;;;5042218;28;20386;-66
2022/04/23 05:31:32;;;;;;;27.85;19.65;;;31.20;99.90;;;;;;5047045;28;20060;-67
2022/04/23 05:34:00;;;;;;;31.65;19.83;;;31.30;99.90;;;;;;5041375;28;20033;-68
2022/04/23 05:36:36;;;;;;;39.42;19.95;;;31.30;99.90;;;;;;5039463;28;20029;-66
2022/04/23 05:39:04;;;;;;;33.63;20.17;;;31.30;99.90;;;;;;5050654;28;20083;-67
2022/04/23 05:41:32;;;;;;;28.30;20.35;;;31.40;99.90;;;;;;5053444;28;20493;-68
2022/04/23 05:44:00;;;;;;;36.67;23.10;;;31.30;99.90;;;;;;5049046;28;20044;-70
2022/04/23 05:46:29;;;;;;;37.03;20.75;;;31.30;99.90;;;;;;5050041;28;20037;-67
2022/04/23 05:49:00;;;;;;;35.08;19.80;;;31.30;99.90;;;;;;5050144;28;20079;-68
2022/04/23 05:51:42;;;;;;;24.87;19.93;;;31.30;99.90;;;;;;5044846;28;20021;-68
2022/04/23 05:54:10;;;;;;;27.45;19.52;;;31.20;99.90;;;;;;5034829;28;20025;-69
2022/04/23 05:56:38;;;;;;;29.25;20.20;;;31.20;99.90;;;;;;5043406;28;20462;-68
2022/04/23 05:59:06;;;;;;;30.00;20.30;;;31.10;99.90;;;;;;5053490;28;20022;-68
2022/04/23 06:01:34;;;;;;;32.35;19.63;;;31.20;99.90;;;;;;5052957;28;20024;-68
2022/04/23 06:04:02;;;;;;;25.67;18.73;;;31.20;99.90;;;;;;5033865;28;20105;-70
2022/04/23 06:06:30;;;;;;;23.65;16.73;;;31.20;99.90;;;;;;5036967;28;20025;-68
2022/04/23 06:08:58;;;;;;;20.88;16.73;;;31.40;99.90;;;;;;5046899;28;20025;-67
2022/04/23 06:11:26;;;;;;;25.17;16.45;;;31.50;99.90;;;;;;5048376;28;20052;-68
2022/04/23 06:14:02;;;;;;;27.02;15.85;;;31.50;99.90;;;;;;5046228;28;20028;-68
2022/04/23 06:16:37;;;;;;;21.08;16.35;;;31.50;99.90;;;;;;5046099;28;20033;-69
2022/04/23 06:19:10;;;;;;;20.92;16.85;;;31.60;99.90;;;;;;5045033;28;20381;-66
2022/04/23 06:21:37;;;;;;;26.40;17.52;;;31.60;99.90;;;;;;5052960;28;20040;-65
2022/04/23 06:24:06;;;;;;;24.63;17.48;;;31.60;99.90;;;;;;5053273;28;20033;-66
2022/04/23 06:26:33;;;;;;;26.15;17.60;;;31.60;99.90;;;;;;5053318;28;20106;-66
2022/04/23 06:29:01;;;;;;;19.77;17.08;;;31.60;99.90;;;;;;5053930;28;20021;-67
2022/04/23 06:31:29;;;;;;;25.80;16.95;;;31.60;99.90;;;;;;5053867;28;20086;-65
2022/04/23 06:34:00;;;;;;;22.20;16.58;;;31.70;99.90;;;;;;5053525;28;20389;-65
2022/04/23 06:36:29;;;;;;;29.47;16.73;;;31.70;99.90;;;;;;5053848;28;20040;-65
2022/04/23 06:38:57;;;;;;;24.80;17.95;;;31.70;99.90;;;;;;5053854;28;20389;-65
2022/04/23 06:41:24;;;;;;;28.00;16.13;;;31.70;99.90;;;;;;5053232;28;20377;-65
2022/04/23 06:43:52;;;;;;;24.52;17.58;;;31.70;99.90;;;;;;5052779;28;20060;-65
2022/04/23 06:46:20;;;;;;;27.05;17.92;;;31.70;99.90;;;;;;5052853;28;20029;-65
2022/04/23 06:48:48;;;;;;;20.98;16.45;;;31.70;99.90;;;;;;5053012;28;20024;-65
2022/04/23 06:51:16;;;;;;;21.60;16.38;;;31.70;99.90;;;;;;5046546;28;20123;-65
2022/04/23 06:53:44;;;;;;;19.77;15.80;;;31.70;99.90;;;;;;5036978;28;20029;-66
2022/04/23 06:56:12;;;;;;;23.35;20.10;;;31.70;99.90;;;;;;5033105;28;20072;-65
2022/04/23 06:58:39;;;;;;;20.98;17.77;;;31.70;99.90;;;;;;5033692;28;20032;-65
2022/04/23 07:01:07;;;;;;;20.90;16.02;;;31.80;99.90;;;;;;5044314;28;20040;-65
2022/04/23 07:03:35;;;;;;;22.13;17.67;;;31.80;99.90;;;;;;5033570;28;20155;-66
2022/04/23 07:06:11;;;;;;;19.80;16.80;;;32.00;99.90;;;;;;5033530;28;20517;-67
2022/04/23 07:08:40;;;;;;;27.90;22.55;;;31.90;99.90;;;;;;5033450;28;20159;-66
2022/04/23 07:11:08;;;;;;;32.38;22.30;;;31.90;99.90;;;;;;5033063;28;20079;-65
2022/04/23 07:13:36;;;;;;;26.55;19.85;;;32.00;99.90;;;;;;5033098;28;20021;-67
2022/04/23 07:16:09;;;;;;;36.95;28.45;;;32.10;99.90;;;;;;5033541;28;20026;-65
2022/04/23 07:18:39;;;;;;;24.42;17.90;;;32.10;99.90;;;;;;5033003;28;20033;-65
2022/04/23 07:21:07;;;;;;;29.13;21.02;;;32.10;99.30;;;;;;5036443;28;20040;-66
2022/04/23 07:26:14;;;;;;;30.67;19.52;;;32.10;99.30;;;;;;5037149;28;20048;-65
2022/04/23 07:28:43;;;;;;;22.88;17.70;;;32.10;99.40;;;;;;5047475;28;20037;-67
2022/04/23 07:31:10;;;;;;;21.05;16.77;;;32.10;99.50;;;;;;5037541;28;20018;-67
2022/04/23 07:38:56;;;;;;;21.38;15.23;;;32.00;99.80;;;;;;5036603;28;20053;-65
2022/04/23 07:41:23;;;;;;;18.85;15.02;;;31.90;99.10;;;;;;5036380;28;20030;-65
2022/04/23 07:43:51;;;;;;;19.35;13.05;;;31.90;99.90;;;;;;5036064;28;20474;-65
2022/04/23 07:46:19;;;;;;;18.50;14.20;;;31.90;99.90;;;;;;5035786;28;20033;-65
2022/04/23 07:48:47;;;;;;;20.45;13.38;;;31.90;98.30;;;;;;5056588;28;20029;-65
2022/04/23 07:51:16;;;;;;;19.02;13.82;;;32.00;98.50;;;;;;5056334;28;20478;-67
2022/04/23 07:53:43;;;;;;;15.73;12.63;;;32.00;99.10;;;;;;5057216;28;20025;-65
2022/04/23 07:56:11;;;;;;;19.17;13.85;;;32.00;98.50;;;;;;5048982;28;20029;-67
2022/04/23 07:58:39;;;;;;;19.60;13.02;;;32.00;98.90;;;;;;5035812;28;20044;-65
2022/04/23 08:01:07;;;;;;;40.85;28.27;;;32.00;98.90;;;;;;5036405;28;20038;-65
2022/04/23 08:03:35;;;;;;;28.67;18.80;;;31.90;99.20;;;;;;5043690;28;20029;-65
2022/04/23 08:06:03;;;;;;;23.08;17.38;;;31.90;99.70;;;;;;5039770;28;20026;-66
2022/04/23 08:08:31;;;;;;;23.45;16.38;;;31.90;99.50;;;;;;5036469;28;20105;-65
2022/04/23 08:11:01;;;;;;;23.35;17.38;;;31.90;99.60;;;;;;5060251;23;20071;-66
2022/04/23 08:13:29;;;;;;;21.10;16.48;;;31.90;99.90;;;;;;5097737;28;20054;-65
2022/04/23 08:15:59;;;;;;;23.58;15.75;;;31.90;99.90;;;;;;5096982;28;20276;-65
2022/04/23 08:18:27;;;;;;;47.60;27.05;;;31.90;99.90;;;;;;5096579;28;20028;-63
2022/04/23 08:20:56;;;;;;;50.78;26.25;;;31.80;99.90;;;;;;5096681;28;20465;-65
2022/04/23 08:23:24;;;;;;;22.95;16.20;;;31.90;99.30;;;;;;5096366;28;20369;-65
2022/04/23 08:25:55;;;;;;;35.40;19.08;;;31.90;99.50;;;;;;5096083;28;20048;-65
2022/04/23 08:31:02;;;;;;;20.42;15.20;;;32.10;99.10;;;;;;5095353;28;20013;-65
2022/04/23 08:33:57;;;;;;;22.60;16.00;;;32.10;99.20;;;;;;5096024;28;20108;-65
2022/04/23 08:36:17;;;;;;;21.95;15.23;;;32.20;98.90;;;;;;5095466;28;20032;-65
2022/04/23 08:38:44;;;;;;;19.30;13.52;;;32.20;98.40;;;;;;5095832;28;20032;-65
2022/04/23 08:41:13;;;;;;;17.13;13.77;;;32.20;98.60;;;;;;5095761;28;20035;-66
2022/04/23 08:43:45;;;;;;;13.93;11.30;;;32.20;98.90;;;;;;5096060;28;20464;-64
2022/04/23 08:46:12;;;;;;;;;;;32.20;98.10;;;;;;5096590;28;20036;-67
2022/04/23 08:48:42;;;;;;;16.02;9.32;;;32.10;99.30;;;;;;5095701;28;20332;-66
2022/04/23 08:51:15;;;;;;;10.32;8.63;;;32.00;99.90;;;;;;5095925;28;20157;-64
2022/04/23 08:53:46;;;;;;;17.00;10.20;;;31.70;99.90;;;;;;5096078;28;20085;-64
2022/04/23 08:56:14;;;;;;;18.35;10.00;;;31.50;99.90;;;;;;5095933;28;20473;-64
2022/04/23 08:58:41;;;;;;;20.67;10.85;;;31.30;99.90;;;;;;5095794;28;20035;-65
2022/04/23 09:01:09;;;;;;;17.50;11.32;;;31.20;99.90;;;;;;5095699;28;20032;-65
2022/04/23 09:03:36;;;;;;;25.95;14.38;;;31.20;99.90;;;;;;5094821;28;20080;-65
2022/04/23 09:06:04;;;;;;;25.20;14.80;;;31.20;99.90;;;;;;5084995;28;20021;-65
2022/04/23 09:08:31;;;;;;;17.95;11.50;;;31.20;99.90;;;;;;5084257;28;20028;-66
2022/04/23 09:10:59;;;;;;;21.83;13.45;;;31.20;99.90;;;;;;5084007;28;20124;-66
2022/04/23 09:13:31;;;;;;;15.18;8.45;;;31.20;99.90;;;;;;5083859;28;20032;-64
2022/04/23 09:24:10;;;;;;;30.67;17.13;;;30.70;99.90;;;;;;5092431;28;20031;-64
2022/04/23 09:26:41;;;;;;;24.38;14.38;;;30.70;99.90;;;;;;5089546;28;20107;-65
2022/04/23 09:29:18;;;;;;;19.17;11.45;;;30.60;99.90;;;;;;5084509;28;20024;-65
2022/04/23 09:31:45;;;;;;;19.63;11.65;;;30.50;99.90;;;;;;5074684;28;20021;-64
2022/04/23 09:34:18;;;;;;;44.88;22.55;;;30.60;99.90;;;;;;5087563;28;20048;-66
2022/04/23 09:37:00;;;;;;;59.58;26.23;;;30.60;99.90;;;;;;5091748;28;20031;-65
2022/04/23 09:39:38;;;;;;;34.10;18.08;;;30.70;99.90;;;;;;5094504;28;20488;-64
2022/04/23 09:42:14;;;;;;;35.38;19.08;;;30.70;99.90;;;;;;5092716;28;20032;-64
2022/04/23 09:44:43;;;;;;;34.63;18.70;;;30.80;99.90;;;;;;5090539;28;20084;-68
2022/04/23 09:47:11;;;;;;;43.88;24.13;;;30.70;99.90;;;;;;5084372;28;20091;-69
2022/04/23 09:49:40;;;;;;;38.28;22.30;;;30.70;99.90;;;;;;5086786;28;20083;-68
2022/04/23 09:52:11;;;;;;;36.45;19.25;;;30.70;99.90;;;;;;5087650;28;20027;-68
2022/04/23 09:54:39;;;;;;;27.83;16.80;;;30.70;99.90;;;;;;5091243;28;20496;-68
2022/04/23 09:57:06;;;;;;;29.80;16.13;;;30.80;99.90;;;;;;5092780;28;20040;-66
2022/04/23 09:59:34;;;;;;;30.42;15.25;;;30.80;99.90;;;;;;5081607;28;20149;-67
2022/04/23 10:02:02;;;;;;;24.77;16.75;;;30.80;99.90;;;;;;5094494;28;20016;-68
2022/04/23 10:04:30;;;;;;;30.13;17.50;;;30.80;99.90;;;;;;5094371;28;20089;-70
2022/04/23 10:07:05;;;;;;;44.25;22.05;;;30.80;99.90;;;;;;5090624;28;20020;-69
2022/04/23 10:09:41;;;;;;;50.72;24.48;;;30.80;99.90;;;;;;5082221;28;20028;-71
2022/04/23 10:12:10;;;;;;;43.42;24.88;;;30.90;99.90;;;;;;5092658;28;20036;-69
2022/04/23 10:14:46;;;;;;;42.60;22.98;;;30.90;99.90;;;;;;5090210;28;20024;-69
2022/04/23 10:17:20;;;;;;;38.28;25.88;;;30.90;99.90;;;;;;5084908;28;20432;-69
2022/04/23 10:19:48;;;;;;;51.53;26.65;;;30.90;99.90;;;;;;5075186;28;20043;-68
2022/04/23 10:22:31;;;;;;;41.65;25.92;;;30.90;99.90;;;;;;5080553;28;20394;-69
2022/04/23 10:25:24;;;;;;;40.42;28.88;;;30.90;99.90;;;;;;5091917;28;20032;-69
2022/04/23 10:27:54;;;;;;;51.53;23.73;;;30.80;99.90;;;;;;5090358;28;20074;-68
2022/04/23 10:30:21;;;;;;;36.65;20.13;;;30.70;99.90;;;;;;5085039;28;20431;-71
2022/04/23 10:32:48;;;;;;;32.45;19.80;;;30.50;99.90;;;;;;5091733;28;20110;-64
2022/04/23 10:35:35;;;;;;;32.40;21.38;;;30.50;99.90;;;;;;5094332;28;20031;-64
2022/04/23 10:38:19;;;;;;;37.60;20.63;;;30.50;99.90;;;;;;5087033;28;20028;-67
2022/04/23 10:40:46;;;;;;;34.75;21.58;;;30.40;99.90;;;;;;5081565;28;20059;-65
2022/04/23 10:43:18;;;;;;;27.88;16.92;;;30.30;99.90;;;;;;5083181;28;20054;-64
2022/04/23 10:45:45;;;;;;;;;;;30.20;99.90;;;;;;5081585;28;20392;-65
2022/04/23 10:48:26;;;;;;;30.58;18.65;;;30.10;99.90;;;;;;5073844;28;20405;-66
2022/04/23 10:51:16;;;;;;;35.58;19.42;;;30.10;99.90;;;;;;5084723;28;20104;-64
2022/04/23 10:53:54;;;;;;;28.58;18.20;;;30.00;99.90;;;;;;5093260;28;20099;-66
2022/04/23 10:56:21;;;;;;;32.70;18.92;;;29.90;99.90;;;;;;5095650;28;20077;-63
2022/04/23 10:58:48;;;;;;;41.75;22.10;;;29.90;99.90;;;;;;5083370;28;20036;-64
2022/04/23 11:01:28;;;;;;;50.50;30.58;;;29.90;99.90;;;;;;5095005;28;20111;-64
2022/04/23 11:04:09;;;;;;;53.92;30.98;;;29.70;99.90;;;;;;5090251;28;20037;-64
2022/04/23 11:12:32;;;;;;;31.10;18.10;;;29.40;99.90;;;;;;5096672;28;20515;-65
2022/04/23 11:15:00;;;;;;;27.13;17.00;;;29.20;99.90;;;;;;5097133;28;20083;-66
2022/04/23 11:17:49;;;;;;;34.53;19.00;;;29.20;99.90;;;;;;5086221;28;20032;-67
2022/04/23 11:20:27;;;;;;;45.20;21.08;;;29.20;99.90;;;;;;5078960;28;20364;-65
2022/04/23 11:22:54;;;;;;;23.23;14.15;;;29.20;99.90;;;;;;5096764;28;20040;-64
2022/04/23 11:25:21;;;;;;;22.20;16.15;;;29.30;99.90;;;;;;5097870;28;20028;-64
2022/04/23 11:27:48;;;;;;;27.38;16.55;;;29.30;99.90;;;;;;5092758;28;20105;-66
2022/04/23 11:30:15;;;;;;;26.10;15.77;;;29.20;99.90;;;;;;5092870;28;20032;-67
2022/04/23 11:32:42;;;;;;;31.95;17.00;;;29.30;99.90;;;;;;5087231;28;20067;-69
2022/04/23 11:35:09;;;;;;;35.58;20.48;;;29.30;99.90;;;;;;5094330;28;20064;-67
2022/04/23 11:37:38;;;;;;;27.63;16.65;;;29.20;99.90;;;;;;5094332;28;20036;-66
2022/04/23 11:40:12;;;;;;;24.02;16.08;;;29.20;99.90;;;;;;5095874;28;20496;-65
2022/04/23 11:42:41;;;;;;;29.50;14.75;;;29.40;99.90;;;;;;5085533;28;20071;-65
2022/04/23 11:45:10;;;;;;;28.10;13.80;;;29.40;99.90;;;;;;5088932;28;20040;-66
2022/04/23 11:47:38;;;;;;;21.55;13.13;;;29.40;99.90;;;;;;5089467;28;20028;-67
2022/04/23 11:50:18;;;;;;;22.35;14.57;;;29.40;99.90;;;;;;5091753;28;20028;-63
2022/04/23 11:52:59;;;;;;;29.35;15.80;;;29.40;99.90;;;;;;5091355;28;20024;-64
2022/04/23 11:55:30;;;;;;;31.92;15.52;;;29.40;99.90;;;;;;5086002;28;20024;-64
2022/04/23 11:58:00;;;;;;;34.67;17.88;;;29.20;99.90;;;;;;5090457;28;20098;-66
2022/04/23 12:00:34;;;;;;;30.70;18.25;;;29.10;99.90;;;;;;5091892;28;20110;-65
2022/04/23 12:03:03;;;;;;;34.42;18.55;;;29.00;99.90;;;;;;5087963;28;20089;-67
2022/04/23 12:05:45;;;;;;;42.22;21.85;;;28.90;99.90;;;;;;5085799;28;20024;-66
2022/04/23 12:08:22;;;;;;;40.53;21.35;;;28.90;99.90;;;;;;5088008;28;20075;-67
2022/04/23 12:10:49;;;;;;;34.47;19.30;;;28.90;99.90;;;;;;5089575;28;20020;-68
2022/04/23 12:13:18;;;;;;;37.08;20.35;;;28.90;99.90;;;;;;5094386;28;20316;-65
2022/04/23 12:15:49;;;;;;;36.03;19.17;;;28.90;99.90;;;;;;5093959;28;20036;-65
2022/04/23 12:18:19;;;;;;;38.92;18.50;;;28.90;99.90;;;;;;5090422;28;20067;-64
2022/04/23 12:20:47;;;;;;;35.25;17.77;;;28.80;99.90;;;;;;5088780;28;20119;-65
2022/04/23 12:23:14;;;;;;;30.75;18.45;;;28.80;99.90;;;;;;5086936;28;20380;-66
2022/04/23 12:25:42;;;;;;;34.38;17.55;;;28.70;99.90;;;;;;5086599;28;20524;-67
2022/04/23 12:41:53;;;;;;;17.75;12.95;;;28.60;99.90;;;;;;5086961;28;20473;-65
2022/04/23 12:44:21;;;;;;;28.77;14.75;;;28.50;99.90;;;;;;5081246;28;20059;-65
2022/04/23 12:47:00;;;;;;;21.75;12.88;;;28.50;99.90;;;;;;5075732;28;20097;-66
2022/04/23 12:49:48;;;;;;;15.90;11.95;;;28.40;99.90;;;;;;5075715;28;20028;-66
2022/04/23 12:52:37;;;;;;;21.77;12.27;;;28.40;99.90;;;;;;5076167;28;20048;-66
2022/04/23 12:55:18;;;;;;;20.85;13.43;;;28.50;99.90;;;;;;5075554;28;20480;-66
2022/04/23 12:57:49;;;;;;;22.55;15.18;;;28.40;99.90;;;;;;5075335;28;20037;-65
2022/04/23 13:00:22;;;;;;;18.23;13.40;;;28.30;99.90;;;;;;5075505;28;20025;-64
2022/04/23 13:02:55;;;;;;;17.77;14.13;;;28.30;99.90;;;;;;5077347;28;20047;-65
2022/04/23 13:05:22;;;;;;;18.40;14.48;;;28.40;99.90;;;;;;5088860;28;20031;-65
2022/04/23 13:10:31;;;;;;;22.13;16.33;;;28.50;99.90;;;;;;5095318;28;20020;-65
2022/04/23 13:12:59;;;;;;;24.17;15.10;;;28.50;99.90;;;;;;5078013;28;20055;-66
2022/04/23 13:15:27;;;;;;;22.42;15.98;;;28.50;99.90;;;;;;5088377;28;20071;-66
2022/04/23 13:17:55;;;;;;;22.13;15.68;;;28.50;99.90;;;;;;5094093;28;20426;-65
2022/04/23 13:20:25;;;;;;;20.67;13.57;;;28.50;99.90;;;;;;5095234;28;20031;-66
2022/04/23 13:22:54;;;;;;;20.10;13.77;;;28.50;99.90;;;;;;5078505;28;20032;-66
2022/04/23 13:25:31;;;;;;;24.70;14.88;;;28.60;99.90;;;;;;5088756;28;20099;-65
2022/04/23 13:28:04;;;;;;;25.08;18.10;;;28.60;99.90;;;;;;5086489;28;20028;-64
2022/04/23 13:30:32;;;;;;;28.90;16.73;;;28.50;99.90;;;;;;5078992;28;20032;-65